sensor_id;sensor_type;location;lat;lon;timestamp;P1;durP1;ratioP1;P2;durP2;ratioP2
20397;SDS011;10358;49.590;11.030;2022-10-16T00:00:39;4.25;;;1.90;;
20397;SDS011;10358;49.590;11.030;2022-10-16T00:03:06;3.83;;;1.80;;
20397;SDS011;10358;49.590;11.030;2022-10-16T00:05:37;4.85;;;1.67;;
20397;SDS011;10358;49.590;11.030;2022-10-16T00:08:03;3.95;;;1.75;;
20397;SDS011;10358;49.590;11.030;2022-10-16T00:10:29;4.93;;;1.73;;
20397;SDS011;10358;49.590;11.030;2022-10-16T00:12:55;4.50;;;1.67;;
20397;SDS011;10358;49.590;11.030;2022-10-16T00:15:21;3.95;;;1.70;;
20397;SDS011;10358;49.590;11.030;2022-10-16T00:17:47;2.38;;;1.55;;
20397;SDS011;10358;49.590;11.030;2022-10-16T00:20:13;4.50;;;1.60;;
20397;SDS011;10358;49.590;11.030;2022-10-16T00:22:39;4.50;;;1.52;;
20397;SDS011;10358;49.590;11.030;2022-10-16T00:25:05;3.95;;;1.70;;
20397;SDS011;10358;49.590;11.030;2022-10-16T00:27:31;4.47;;;1.60;;
20397;SDS011;10358;49.590;11.030;2022-10-16T00:29:57;3.63;;;1.80;;
20397;SDS011;10358;49.590;11.030;2022-10-16T00:32:23;4.35;;;1.63;;
20397;SDS011;10358;49.590;11.030;2022-10-16T00:34:49;3.80;;;1.70;;
20397;SDS011;10358;49.590;11.030;2022-10-16T00:37:16;7.40;;;1.70;;
20397;SDS011;10358;49.590;11.030;2022-10-16T00:39:42;6.47;;;1.80;;
20397;SDS011;10358;49.590;11.030;2022-10-16T00:42:10;2.20;;;1.60;;
20397;SDS011;10358;49.590;11.030;2022-10-16T00:47:23;2.53;;;1.65;;
20397;SDS011;10358;49.590;11.030;2022-10-16T00:49:50;6.38;;;1.70;;
20397;SDS011;10358;49.590;11.030;2022-10-16T00:52:17;5.57;;;1.75;;
20397;SDS011;10358;49.590;11.030;2022-10-16T00:54:43;4.18;;;1.60;;
20397;SDS011;10358;49.590;11.030;2022-10-16T00:57:10;5.93;;;1.80;;
20397;SDS011;10358;49.590;11.030;2022-10-16T00:59:37;4.45;;;1.70;;
20397;SDS011;10358;49.590;11.030;2022-10-16T01:02:05;4.38;;;1.67;;
20397;SDS011;10358;49.590;11.030;2022-10-16T01:04:37;2.42;;;1.52;;
20397;SDS011;10358;49.590;11.030;2022-10-16T01:07:12;4.60;;;1.70;;
20397;SDS011;10358;49.590;11.030;2022-10-16T01:12:39;5.00;;;1.95;;
20397;SDS011;10358;49.590;11.030;2022-10-16T01:15:08;3.67;;;1.53;;
20397;SDS011;10358;49.590;11.030;2022-10-16T01:20:17;3.88;;;1.65;;
20397;SDS011;10358;49.590;11.030;2022-10-16T01:23:10;8.13;;;1.77;;
20397;SDS011;10358;49.590;11.030;2022-10-16T01:28:16;2.88;;;1.80;;
20397;SDS011;10358;49.590;11.030;2022-10-16T01:30:43;5.32;;;1.85;;
20397;SDS011;10358;49.590;11.030;2022-10-16T01:35:42;5.32;;;1.80;;
20397;SDS011;10358;49.590;11.030;2022-10-16T01:40:36;10.23;;;2.20;;
20397;SDS011;10358;49.590;11.030;2022-10-16T01:43:07;5.63;;;2.05;;
20397;SDS011;10358;49.590;11.030;2022-10-16T01:45:34;7.03;;;2.10;;
20397;SDS011;10358;49.590;11.030;2022-10-16T01:48:01;8.38;;;2.30;;
20397;SDS011;10358;49.590;11.030;2022-10-16T01:50:29;6.75;;;2.00;;
20397;SDS011;10358;49.590;11.030;2022-10-16T01:52:56;2.55;;;1.77;;
20397;SDS011;10358;49.590;11.030;2022-10-16T01:55:28;7.57;;;1.88;;
20397;SDS011;10358;49.590;11.030;2022-10-16T01:57:55;7.28;;;1.98;;
20397;SDS011;10358;49.590;11.030;2022-10-16T02:00:22;5.22;;;1.80;;
20397;SDS011;10358;49.590;11.030;2022-10-16T02:02:49;6.30;;;2.05;;
20397;SDS011;10358;49.590;11.030;2022-10-16T02:07:56;4.65;;;1.70;;
20397;SDS011;10358;49.590;11.030;2022-10-16T02:10:22;3.40;;;1.90;;
20397;SDS011;10358;49.590;11.030;2022-10-16T02:12:57;5.90;;;2.00;;
20397;SDS011;10358;49.590;11.030;2022-10-16T02:15:24;5.60;;;1.80;;
20397;SDS011;10358;49.590;11.030;2022-10-16T02:17:50;4.95;;;1.88;;
20397;SDS011;10358;49.590;11.030;2022-10-16T02:20:16;4.50;;;1.90;;
20397;SDS011;10358;49.590;11.030;2022-10-16T02:22:45;7.40;;;2.17;;
20397;SDS011;10358;49.590;11.030;2022-10-16T02:27:46;9.32;;;1.90;;
20397;SDS011;10358;49.590;11.030;2022-10-16T02:30:18;5.75;;;2.03;;
20397;SDS011;10358;49.590;11.030;2022-10-16T02:32:45;4.28;;;2.10;;
20397;SDS011;10358;49.590;11.030;2022-10-16T02:35:13;8.85;;;1.90;;
20397;SDS011;10358;49.590;11.030;2022-10-16T02:37:40;5.93;;;1.85;;
20397;SDS011;10358;49.590;11.030;2022-10-16T02:40:07;3.63;;;2.10;;
20397;SDS011;10358;49.590;11.030;2022-10-16T02:42:34;6.38;;;1.85;;
20397;SDS011;10358;49.590;11.030;2022-10-16T02:45:00;5.18;;;1.70;;
20397;SDS011;10358;49.590;11.030;2022-10-16T02:47:26;8.15;;;1.90;;
20397;SDS011;10358;49.590;11.030;2022-10-16T02:49:52;4.65;;;1.80;;
20397;SDS011;10358;49.590;11.030;2022-10-16T02:52:18;7.00;;;1.90;;
20397;SDS011;10358;49.590;11.030;2022-10-16T02:54:44;3.28;;;1.88;;
20397;SDS011;10358;49.590;11.030;2022-10-16T02:57:10;4.13;;;1.88;;
20397;SDS011;10358;49.590;11.030;2022-10-16T02:59:36;5.75;;;2.10;;
20397;SDS011;10358;49.590;11.030;2022-10-16T03:02:02;5.35;;;2.00;;
20397;SDS011;10358;49.590;11.030;2022-10-16T03:04:28;6.07;;;1.70;;
20397;SDS011;10358;49.590;11.030;2022-10-16T03:06:54;10.80;;;1.80;;
20397;SDS011;10358;49.590;11.030;2022-10-16T03:09:21;10.02;;;2.55;;
20397;SDS011;10358;49.590;11.030;2022-10-16T03:14:51;4.80;;;1.90;;
20397;SDS011;10358;49.590;11.030;2022-10-16T03:17:17;5.20;;;2.00;;
20397;SDS011;10358;49.590;11.030;2022-10-16T03:19:43;4.82;;;1.80;;
20397;SDS011;10358;49.590;11.030;2022-10-16T03:22:08;3.78;;;1.67;;
20397;SDS011;10358;49.590;11.030;2022-10-16T03:24:34;5.75;;;1.73;;
20397;SDS011;10358;49.590;11.030;2022-10-16T03:27:00;3.88;;;1.88;;
20397;SDS011;10358;49.590;11.030;2022-10-16T03:29:27;8.05;;;1.88;;
20397;SDS011;10358;49.590;11.030;2022-10-16T03:31:54;2.67;;;1.63;;
20397;SDS011;10358;49.590;11.030;2022-10-16T03:34:20;7.63;;;2.00;;
20397;SDS011;10358;49.590;11.030;2022-10-16T03:36:46;6.18;;;2.00;;
20397;SDS011;10358;49.590;11.030;2022-10-16T03:39:12;3.67;;;1.63;;
20397;SDS011;10358;49.590;11.030;2022-10-16T03:41:38;3.90;;;1.90;;
20397;SDS011;10358;49.590;11.030;2022-10-16T03:44:04;4.28;;;1.73;;
20397;SDS011;10358;49.590;11.030;2022-10-16T03:46:30;3.10;;;1.70;;
20397;SDS011;10358;49.590;11.030;2022-10-16T03:48:56;4.93;;;1.77;;
20397;SDS011;10358;49.590;11.030;2022-10-16T03:51:22;3.13;;;1.70;;
20397;SDS011;10358;49.590;11.030;2022-10-16T03:53:47;4.45;;;1.80;;
20397;SDS011;10358;49.590;11.030;2022-10-16T03:56:13;5.05;;;1.77;;
20397;SDS011;10358;49.590;11.030;2022-10-16T03:58:39;3.25;;;1.70;;
20397;SDS011;10358;49.590;11.030;2022-10-16T04:01:05;1.90;;;1.60;;
20397;SDS011;10358;49.590;11.030;2022-10-16T04:03:31;7.78;;;1.50;;
20397;SDS011;10358;49.590;11.030;2022-10-16T04:05:57;6.22;;;1.73;;
20397;SDS011;10358;49.590;11.030;2022-10-16T04:08:23;5.95;;;1.60;;
20397;SDS011;10358;49.590;11.030;2022-10-16T04:10:49;3.90;;;1.70;;
20397;SDS011;10358;49.590;11.030;2022-10-16T04:13:15;4.15;;;1.88;;
20397;SDS011;10358;49.590;11.030;2022-10-16T04:15:41;5.20;;;2.25;;
20397;SDS011;10358;49.590;11.030;2022-10-16T04:18:08;5.15;;;1.85;;
20397;SDS011;10358;49.590;11.030;2022-10-16T04:20:34;4.72;;;1.50;;
20397;SDS011;10358;49.590;11.030;2022-10-16T04:23:00;5.28;;;1.75;;
20397;SDS011;10358;49.590;11.030;2022-10-16T04:25:26;2.28;;;1.77;;
20397;SDS011;10358;49.590;11.030;2022-10-16T04:27:52;4.72;;;1.60;;
20397;SDS011;10358;49.590;11.030;2022-10-16T04:30:19;9.00;;;2.17;;
20397;SDS011;10358;49.590;11.030;2022-10-16T04:32:48;3.50;;;1.80;;
20397;SDS011;10358;49.590;11.030;2022-10-16T04:35:15;4.32;;;1.95;;
20397;SDS011;10358;49.590;11.030;2022-10-16T04:37:41;4.18;;;1.80;;
20397;SDS011;10358;49.590;11.030;2022-10-16T04:40:07;3.83;;;1.70;;
20397;SDS011;10358;49.590;11.030;2022-10-16T04:42:33;3.00;;;1.63;;
20397;SDS011;10358;49.590;11.030;2022-10-16T04:44:59;4.00;;;1.70;;
20397;SDS011;10358;49.590;11.030;2022-10-16T04:47:25;10.15;;;1.75;;
20397;SDS011;10358;49.590;11.030;2022-10-16T04:49:51;5.50;;;1.67;;
20397;SDS011;10358;49.590;11.030;2022-10-16T04:52:16;6.57;;;1.60;;
20397;SDS011;10358;49.590;11.030;2022-10-16T04:54:43;9.82;;;1.83;;
20397;SDS011;10358;49.590;11.030;2022-10-16T04:57:10;2.50;;;1.80;;
20397;SDS011;10358;49.590;11.030;2022-10-16T04:59:36;6.22;;;2.22;;
20397;SDS011;10358;49.590;11.030;2022-10-16T05:02:02;5.07;;;1.70;;
20397;SDS011;10358;49.590;11.030;2022-10-16T05:04:28;3.58;;;1.80;;
20397;SDS011;10358;49.590;11.030;2022-10-16T05:06:54;5.95;;;1.90;;
20397;SDS011;10358;49.590;11.030;2022-10-16T05:09:20;3.92;;;1.80;;
20397;SDS011;10358;49.590;11.030;2022-10-16T05:11:46;3.83;;;1.65;;
20397;SDS011;10358;49.590;11.030;2022-10-16T05:14:12;4.28;;;1.85;;
20397;SDS011;10358;49.590;11.030;2022-10-16T05:16:38;6.07;;;1.95;;
20397;SDS011;10358;49.590;11.030;2022-10-16T05:19:04;3.40;;;1.88;;
20397;SDS011;10358;49.590;11.030;2022-10-16T05:21:30;5.60;;;2.13;;
20397;SDS011;10358;49.590;11.030;2022-10-16T05:23:56;3.65;;;2.10;;
20397;SDS011;10358;49.590;11.030;2022-10-16T05:26:22;4.22;;;2.10;;
20397;SDS011;10358;49.590;11.030;2022-10-16T05:28:48;5.35;;;2.60;;
20397;SDS011;10358;49.590;11.030;2022-10-16T05:31:14;5.47;;;2.45;;
20397;SDS011;10358;49.590;11.030;2022-10-16T05:33:40;7.60;;;2.47;;
20397;SDS011;10358;49.590;11.030;2022-10-16T05:36:07;4.60;;;2.45;;
20397;SDS011;10358;49.590;11.030;2022-10-16T05:38:35;5.00;;;2.20;;
20397;SDS011;10358;49.590;11.030;2022-10-16T05:41:01;6.40;;;1.88;;
20397;SDS011;10358;49.590;11.030;2022-10-16T05:43:28;3.88;;;1.70;;
20397;SDS011;10358;49.590;11.030;2022-10-16T05:45:58;6.05;;;1.70;;
20397;SDS011;10358;49.590;11.030;2022-10-16T05:48:24;5.20;;;1.83;;
20397;SDS011;10358;49.590;11.030;2022-10-16T05:51:00;3.80;;;1.95;;
20397;SDS011;10358;49.590;11.030;2022-10-16T05:53:27;3.95;;;2.22;;
20397;SDS011;10358;49.590;11.030;2022-10-16T05:55:54;2.60;;;2.00;;
20397;SDS011;10358;49.590;11.030;2022-10-16T05:58:20;5.80;;;1.90;;
20397;SDS011;10358;49.590;11.030;2022-10-16T06:00:57;4.70;;;2.17;;
20397;SDS011;10358;49.590;11.030;2022-10-16T06:03:23;6.63;;;2.05;;
20397;SDS011;10358;49.590;11.030;2022-10-16T06:05:49;5.47;;;2.15;;
20397;SDS011;10358;49.590;11.030;2022-10-16T06:08:15;6.38;;;2.03;;
20397;SDS011;10358;49.590;11.030;2022-10-16T06:10:42;2.03;;;1.55;;
20397;SDS011;10358;49.590;11.030;2022-10-16T06:13:08;3.42;;;1.90;;
20397;SDS011;10358;49.590;11.030;2022-10-16T06:15:34;2.15;;;1.83;;
20397;SDS011;10358;49.590;11.030;2022-10-16T06:18:00;4.60;;;1.90;;
20397;SDS011;10358;49.590;11.030;2022-10-16T06:20:26;3.78;;;1.85;;
20397;SDS011;10358;49.590;11.030;2022-10-16T06:22:52;8.98;;;2.15;;
20397;SDS011;10358;49.590;11.030;2022-10-16T06:25:18;5.57;;;2.00;;
20397;SDS011;10358;49.590;11.030;2022-10-16T06:27:44;3.72;;;1.90;;
20397;SDS011;10358;49.590;11.030;2022-10-16T06:30:10;4.35;;;2.20;;
20397;SDS011;10358;49.590;11.030;2022-10-16T06:32:36;5.72;;;2.20;;
20397;SDS011;10358;49.590;11.030;2022-10-16T06:35:02;5.22;;;2.10;;
20397;SDS011;10358;49.590;11.030;2022-10-16T06:37:28;5.20;;;1.98;;
20397;SDS011;10358;49.590;11.030;2022-10-16T06:39:54;4.75;;;2.28;;
20397;SDS011;10358;49.590;11.030;2022-10-16T06:42:20;3.30;;;1.80;;
20397;SDS011;10358;49.590;11.030;2022-10-16T06:44:46;4.72;;;1.90;;
20397;SDS011;10358;49.590;11.030;2022-10-16T06:47:12;3.42;;;1.77;;
20397;SDS011;10358;49.590;11.030;2022-10-16T06:49:38;6.68;;;1.67;;
20397;SDS011;10358;49.590;11.030;2022-10-16T06:52:04;3.00;;;1.77;;
20397;SDS011;10358;49.590;11.030;2022-10-16T06:54:30;2.30;;;1.70;;
20397;SDS011;10358;49.590;11.030;2022-10-16T06:56:56;3.72;;;2.00;;
20397;SDS011;10358;49.590;11.030;2022-10-16T06:59:22;3.60;;;1.85;;
20397;SDS011;10358;49.590;11.030;2022-10-16T07:01:48;5.97;;;1.90;;
20397;SDS011;10358;49.590;11.030;2022-10-16T07:04:14;3.30;;;1.63;;
20397;SDS011;10358;49.590;11.030;2022-10-16T07:06:40;5.00;;;1.90;;
20397;SDS011;10358;49.590;11.030;2022-10-16T07:09:07;4.65;;;2.00;;
20397;SDS011;10358;49.590;11.030;2022-10-16T07:11:34;6.47;;;2.28;;
20397;SDS011;10358;49.590;11.030;2022-10-16T07:14:01;5.15;;;2.75;;
20397;SDS011;10358;49.590;11.030;2022-10-16T07:16:28;4.97;;;2.53;;
20397;SDS011;10358;49.590;11.030;2022-10-16T07:18:55;6.55;;;2.42;;
20397;SDS011;10358;49.590;11.030;2022-10-16T07:21:27;5.97;;;2.17;;
20397;SDS011;10358;49.590;11.030;2022-10-16T07:23:55;4.45;;;1.77;;
20397;SDS011;10358;49.590;11.030;2022-10-16T07:26:21;3.38;;;1.80;;
20397;SDS011;10358;49.590;11.030;2022-10-16T07:28:47;2.80;;;1.67;;
20397;SDS011;10358;49.590;11.030;2022-10-16T07:31:14;5.45;;;2.10;;
20397;SDS011;10358;49.590;11.030;2022-10-16T07:33:41;3.63;;;1.95;;
20397;SDS011;10358;49.590;11.030;2022-10-16T07:36:09;4.97;;;2.30;;
20397;SDS011;10358;49.590;11.030;2022-10-16T07:38:35;5.38;;;2.10;;
20397;SDS011;10358;49.590;11.030;2022-10-16T07:41:02;5.70;;;2.10;;
20397;SDS011;10358;49.590;11.030;2022-10-16T07:43:28;3.83;;;1.80;;
20397;SDS011;10358;49.590;11.030;2022-10-16T07:45:55;3.63;;;1.77;;
20397;SDS011;10358;49.590;11.030;2022-10-16T07:48:22;5.93;;;1.70;;
20397;SDS011;10358;49.590;11.030;2022-10-16T07:50:49;2.67;;;1.80;;
20397;SDS011;10358;49.590;11.030;2022-10-16T07:53:15;3.97;;;1.70;;
20397;SDS011;10358;49.590;11.030;2022-10-16T07:55:41;2.83;;;1.65;;
20397;SDS011;10358;49.590;11.030;2022-10-16T07:58:07;4.80;;;1.90;;
20397;SDS011;10358;49.590;11.030;2022-10-16T08:00:33;5.55;;;1.80;;
20397;SDS011;10358;49.590;11.030;2022-10-16T08:02:59;6.90;;;1.77;;
20397;SDS011;10358;49.590;11.030;2022-10-16T08:05:26;8.30;;;2.30;;
20397;SDS011;10358;49.590;11.030;2022-10-16T08:07:52;4.05;;;2.63;;
20397;SDS011;10358;49.590;11.030;2022-10-16T08:10:18;10.73;;;2.67;;
20397;SDS011;10358;49.590;11.030;2022-10-16T08:12:45;4.97;;;2.00;;
20397;SDS011;10358;49.590;11.030;2022-10-16T08:15:11;7.45;;;2.53;;
20397;SDS011;10358;49.590;11.030;2022-10-16T08:17:37;5.30;;;2.13;;
20397;SDS011;10358;49.590;11.030;2022-10-16T08:20:03;4.72;;;2.42;;
20397;SDS011;10358;49.590;11.030;2022-10-16T08:22:29;3.60;;;1.80;;
20397;SDS011;10358;49.590;11.030;2022-10-16T08:24:55;5.50;;;1.80;;
20397;SDS011;10358;49.590;11.030;2022-10-16T08:27:21;1.88;;;1.60;;
20397;SDS011;10358;49.590;11.030;2022-10-16T08:29:48;4.63;;;1.70;;
20397;SDS011;10358;49.590;11.030;2022-10-16T08:32:14;4.72;;;1.60;;
20397;SDS011;10358;49.590;11.030;2022-10-16T08:34:40;2.60;;;1.60;;
20397;SDS011;10358;49.590;11.030;2022-10-16T08:37:06;4.10;;;1.67;;
20397;SDS011;10358;49.590;11.030;2022-10-16T08:39:33;7.43;;;2.17;;
20397;SDS011;10358;49.590;11.030;2022-10-16T08:47:02;3.78;;;1.90;;
20397;SDS011;10358;49.590;11.030;2022-10-16T08:49:32;4.30;;;1.80;;
20397;SDS011;10358;49.590;11.030;2022-10-16T08:51:58;4.32;;;1.80;;
20397;SDS011;10358;49.590;11.030;2022-10-16T08:54:32;4.45;;;1.70;;
20397;SDS011;10358;49.590;11.030;2022-10-16T08:57:17;9.90;;;2.67;;
20397;SDS011;10358;49.590;11.030;2022-10-16T08:59:45;5.28;;;1.80;;
20397;SDS011;10358;49.590;11.030;2022-10-16T09:02:24;2.60;;;1.52;;
20397;SDS011;10358;49.590;11.030;2022-10-16T09:07:27;3.67;;;1.70;;
20397;SDS011;10358;49.590;11.030;2022-10-16T09:23:07;2.85;;;1.40;;
20397;SDS011;10358;49.590;11.030;2022-10-16T09:25:34;4.22;;;2.00;;
20397;SDS011;10358;49.590;11.030;2022-10-16T09:28:00;3.22;;;1.70;;
20397;SDS011;10358;49.590;11.030;2022-10-16T09:30:28;2.97;;;1.60;;
20397;SDS011;10358;49.590;11.030;2022-10-16T09:32:54;3.33;;;1.70;;
20397;SDS011;10358;49.590;11.030;2022-10-16T09:35:27;5.93;;;1.73;;
20397;SDS011;10358;49.590;11.030;2022-10-16T09:37:56;3.40;;;1.50;;
20397;SDS011;10358;49.590;11.030;2022-10-16T09:43:39;3.67;;;1.50;;
20397;SDS011;10358;49.590;11.030;2022-10-16T09:45:40;4.13;;;1.70;;
20397;SDS011;10358;49.590;11.030;2022-10-16T09:48:13;4.78;;;1.80;;
20397;SDS011;10358;49.590;11.030;2022-10-16T09:50:43;11.05;;;2.00;;
20397;SDS011;10358;49.590;11.030;2022-10-16T09:53:13;12.32;;;2.10;;
20397;SDS011;10358;49.590;11.030;2022-10-16T09:55:49;3.85;;;2.00;;
20397;SDS011;10358;49.590;11.030;2022-10-16T09:58:15;5.07;;;1.70;;
20397;SDS011;10358;49.590;11.030;2022-10-16T10:00:42;2.88;;;1.70;;
20397;SDS011;10358;49.590;11.030;2022-10-16T10:03:19;7.78;;;2.08;;
20397;SDS011;10358;49.590;11.030;2022-10-16T10:05:52;3.70;;;2.03;;
20397;SDS011;10358;49.590;11.030;2022-10-16T10:08:18;4.93;;;1.90;;
20397;SDS011;10358;49.590;11.030;2022-10-16T10:10:44;4.22;;;2.05;;
20397;SDS011;10358;49.590;11.030;2022-10-16T10:13:20;5.28;;;2.47;;
20397;SDS011;10358;49.590;11.030;2022-10-16T10:15:46;3.38;;;1.63;;
20397;SDS011;10358;49.590;11.030;2022-10-16T10:18:16;4.45;;;1.73;;
20397;SDS011;10358;49.590;11.030;2022-10-16T10:20:44;5.03;;;1.80;;
20397;SDS011;10358;49.590;11.030;2022-10-16T10:23:19;3.38;;;1.52;;
20397;SDS011;10358;49.590;11.030;2022-10-16T10:38:54;3.13;;;1.63;;
20397;SDS011;10358;49.590;11.030;2022-10-16T10:49:11;4.47;;;1.60;;
20397;SDS011;10358;49.590;11.030;2022-10-16T10:51:52;6.07;;;1.80;;
20397;SDS011;10358;49.590;11.030;2022-10-16T10:54:28;2.92;;;1.70;;
20397;SDS011;10358;49.590;11.030;2022-10-16T11:07:42;5.03;;;1.60;;
20397;SDS011;10358;49.590;11.030;2022-10-16T11:10:30;3.60;;;1.67;;
20397;SDS011;10358;49.590;11.030;2022-10-16T11:13:00;2.70;;;1.50;;
20397;SDS011;10358;49.590;11.030;2022-10-16T11:15:33;3.40;;;1.50;;
20397;SDS011;10358;49.590;11.030;2022-10-16T11:18:16;6.10;;;2.30;;
20397;SDS011;10358;49.590;11.030;2022-10-16T11:23:14;3.85;;;1.60;;
20397;SDS011;10358;49.590;11.030;2022-10-16T11:25:42;2.13;;;1.40;;
20397;SDS011;10358;49.590;11.030;2022-10-16T11:30:45;3.90;;;1.65;;
20397;SDS011;10358;49.590;11.030;2022-10-16T11:35:53;3.67;;;1.38;;
20397;SDS011;10358;49.590;11.030;2022-10-16T11:40:45;5.28;;;1.55;;
20397;SDS011;10358;49.590;11.030;2022-10-16T11:45:46;4.03;;;1.80;;
20397;SDS011;10358;49.590;11.030;2022-10-16T11:50:52;3.00;;;1.60;;
20397;SDS011;10358;49.590;11.030;2022-10-16T11:56:00;4.25;;;1.75;;
20397;SDS011;10358;49.590;11.030;2022-10-16T11:58:28;6.38;;;1.85;;
20397;SDS011;10358;49.590;11.030;2022-10-16T12:03:38;4.72;;;2.00;;
20397;SDS011;10358;49.590;11.030;2022-10-16T12:08:33;5.35;;;1.90;;
20397;SDS011;10358;49.590;11.030;2022-10-16T12:13:44;3.60;;;1.90;;
20397;SDS011;10358;49.590;11.030;2022-10-16T12:18:42;6.38;;;1.98;;
20397;SDS011;10358;49.590;11.030;2022-10-16T12:21:09;4.47;;;1.50;;
20397;SDS011;10358;49.590;11.030;2022-10-16T12:23:48;2.55;;;1.63;;
20397;SDS011;10358;49.590;11.030;2022-10-16T12:26:14;3.65;;;1.70;;
20397;SDS011;10358;49.590;11.030;2022-10-16T12:28:49;2.28;;;1.60;;
20397;SDS011;10358;49.590;11.030;2022-10-16T12:31:16;3.58;;;2.00;;
20397;SDS011;10358;49.590;11.030;2022-10-16T12:33:56;4.13;;;1.88;;
20397;SDS011;10358;49.590;11.030;2022-10-16T12:36:32;4.63;;;1.60;;
20397;SDS011;10358;49.590;11.030;2022-10-16T12:39:00;4.22;;;1.70;;
20397;SDS011;10358;49.590;11.030;2022-10-16T12:41:35;4.45;;;1.83;;
20397;SDS011;10358;49.590;11.030;2022-10-16T12:44:05;4.18;;;1.83;;
20397;SDS011;10358;49.590;11.030;2022-10-16T12:51:39;5.68;;;1.65;;
20397;SDS011;10358;49.590;11.030;2022-10-16T12:56:45;5.43;;;1.55;;
20397;SDS011;10358;49.590;11.030;2022-10-16T13:07:25;3.90;;;1.67;;
20397;SDS011;10358;49.590;11.030;2022-10-16T13:14:51;3.70;;;1.38;;
20397;SDS011;10358;49.590;11.030;2022-10-16T13:30:30;6.50;;;2.10;;
20397;SDS011;10358;49.590;11.030;2022-10-16T13:32:59;3.17;;;2.05;;
20397;SDS011;10358;49.590;11.030;2022-10-16T13:35:29;4.72;;;2.15;;
20397;SDS011;10358;49.590;11.030;2022-10-16T13:40:47;5.10;;;1.67;;
20397;SDS011;10358;49.590;11.030;2022-10-16T13:43:13;1.30;;;1.20;;
20397;SDS011;10358;49.590;11.030;2022-10-16T13:45:39;4.57;;;1.48;;
20397;SDS011;10358;49.590;11.030;2022-10-16T13:48:06;2.60;;;1.65;;
20397;SDS011;10358;49.590;11.030;2022-10-16T13:50:37;2.60;;;1.52;;
20397;SDS011;10358;49.590;11.030;2022-10-16T13:53:06;4.57;;;1.58;;
20397;SDS011;10358;49.590;11.030;2022-10-16T13:55:32;8.15;;;1.83;;
20397;SDS011;10358;49.590;11.030;2022-10-16T13:58:05;3.40;;;1.40;;
20397;SDS011;10358;49.590;11.030;2022-10-16T14:00:32;2.88;;;1.48;;
20397;SDS011;10358;49.590;11.030;2022-10-16T14:03:04;4.43;;;1.33;;
20397;SDS011;10358;49.590;11.030;2022-10-16T14:05:31;2.03;;;1.30;;
20397;SDS011;10358;49.590;11.030;2022-10-16T14:07:57;3.50;;;1.20;;
20397;SDS011;10358;49.590;11.030;2022-10-16T14:10:25;1.83;;;1.40;;
20397;SDS011;10358;49.590;11.030;2022-10-16T14:12:56;1.90;;;1.30;;
20397;SDS011;10358;49.590;11.030;2022-10-16T14:15:22;3.00;;;1.30;;
20397;SDS011;10358;49.590;11.030;2022-10-16T14:17:50;3.28;;;1.23;;
20397;SDS011;10358;49.590;11.030;2022-10-16T14:20:24;3.88;;;1.40;;
20397;SDS011;10358;49.590;11.030;2022-10-16T14:23:02;4.55;;;1.40;;
20397;SDS011;10358;49.590;11.030;2022-10-16T14:25:29;7.97;;;2.30;;
20397;SDS011;10358;49.590;11.030;2022-10-16T14:28:00;3.78;;;1.40;;
20397;SDS011;10358;49.590;11.030;2022-10-16T14:30:27;2.75;;;1.30;;
20397;SDS011;10358;49.590;11.030;2022-10-16T14:32:55;5.43;;;1.35;;
20397;SDS011;10358;49.590;11.030;2022-10-16T14:35:25;3.38;;;1.40;;
20397;SDS011;10358;49.590;11.030;2022-10-16T14:37:52;4.32;;;1.88;;
20397;SDS011;10358;49.590;11.030;2022-10-16T14:40:18;6.18;;;2.45;;
20397;SDS011;10358;49.590;11.030;2022-10-16T14:42:44;4.00;;;1.70;;
20397;SDS011;10358;49.590;11.030;2022-10-16T14:45:11;5.07;;;1.45;;
20397;SDS011;10358;49.590;11.030;2022-10-16T14:47:37;2.97;;;1.25;;
20397;SDS011;10358;49.590;11.030;2022-10-16T14:51:57;4.03;;;1.48;;
20397;SDS011;10358;49.590;11.030;2022-10-16T14:54:23;4.13;;;1.27;;
20397;SDS011;10358;49.590;11.030;2022-10-16T14:56:55;3.67;;;1.42;;
20397;SDS011;10358;49.590;11.030;2022-10-16T14:59:30;4.45;;;1.60;;
20397;SDS011;10358;49.590;11.030;2022-10-16T15:02:01;6.32;;;1.60;;
20397;SDS011;10358;49.590;11.030;2022-10-16T15:04:43;3.20;;;1.67;;
20397;SDS011;10358;49.590;11.030;2022-10-16T15:07:08;5.65;;;1.55;;
20397;SDS011;10358;49.590;11.030;2022-10-16T15:09:34;4.80;;;1.35;;
20397;SDS011;10358;49.590;11.030;2022-10-16T15:11:59;4.00;;;1.40;;
20397;SDS011;10358;49.590;11.030;2022-10-16T15:14:25;3.35;;;1.35;;
20397;SDS011;10358;49.590;11.030;2022-10-16T15:16:51;5.28;;;1.67;;
20397;SDS011;10358;49.590;11.030;2022-10-16T15:19:16;8.38;;;1.63;;
20397;SDS011;10358;49.590;11.030;2022-10-16T15:21:42;4.82;;;1.77;;
20397;SDS011;10358;49.590;11.030;2022-10-16T15:24:09;4.72;;;1.60;;
20397;SDS011;10358;49.590;11.030;2022-10-16T15:26:37;8.00;;;2.00;;
20397;SDS011;10358;49.590;11.030;2022-10-16T15:29:03;4.57;;;1.90;;
20397;SDS011;10358;49.590;11.030;2022-10-16T15:31:28;5.95;;;1.88;;
20397;SDS011;10358;49.590;11.030;2022-10-16T15:33:54;4.70;;;1.73;;
20397;SDS011;10358;49.590;11.030;2022-10-16T15:36:27;6.50;;;2.60;;
20397;SDS011;10358;49.590;11.030;2022-10-16T15:38:53;9.93;;;2.80;;
20397;SDS011;10358;49.590;11.030;2022-10-16T15:41:20;10.77;;;2.70;;
20397;SDS011;10358;49.590;11.030;2022-10-16T15:43:47;10.38;;;2.58;;
20397;SDS011;10358;49.590;11.030;2022-10-16T15:46:14;4.75;;;1.70;;
20397;SDS011;10358;49.590;11.030;2022-10-16T15:48:40;8.18;;;1.70;;
20397;SDS011;10358;49.590;11.030;2022-10-16T15:51:06;6.60;;;1.70;;
20397;SDS011;10358;49.590;11.030;2022-10-16T15:53:33;7.45;;;1.90;;
20397;SDS011;10358;49.590;11.030;2022-10-16T15:56:08;7.30;;;1.90;;
20397;SDS011;10358;49.590;11.030;2022-10-16T15:58:36;14.68;;;2.03;;
20397;SDS011;10358;49.590;11.030;2022-10-16T16:01:01;7.90;;;2.70;;
20397;SDS011;10358;49.590;11.030;2022-10-16T16:03:29;15.23;;;2.75;;
20397;SDS011;10358;49.590;11.030;2022-10-16T16:05:55;6.88;;;2.00;;
20397;SDS011;10358;49.590;11.030;2022-10-16T16:08:21;11.48;;;2.13;;
20397;SDS011;10358;49.590;11.030;2022-10-16T16:13:28;6.78;;;2.58;;
20397;SDS011;10358;49.590;11.030;2022-10-16T16:15:53;7.72;;;2.20;;
20397;SDS011;10358;49.590;11.030;2022-10-16T16:18:19;5.03;;;2.10;;
20397;SDS011;10358;49.590;11.030;2022-10-16T16:20:45;6.07;;;2.05;;
20397;SDS011;10358;49.590;11.030;2022-10-16T16:23:10;8.15;;;2.38;;
20397;SDS011;10358;49.590;11.030;2022-10-16T16:25:36;10.13;;;2.20;;
20397;SDS011;10358;49.590;11.030;2022-10-16T16:28:01;5.53;;;2.10;;
20397;SDS011;10358;49.590;11.030;2022-10-16T16:30:27;6.18;;;2.70;;
20397;SDS011;10358;49.590;11.030;2022-10-16T16:32:53;15.30;;;2.45;;
20397;SDS011;10358;49.590;11.030;2022-10-16T16:35:18;14.57;;;2.30;;
20397;SDS011;10358;49.590;11.030;2022-10-16T16:37:44;10.68;;;2.60;;
20397;SDS011;10358;49.590;11.030;2022-10-16T16:40:09;11.10;;;2.72;;
20397;SDS011;10358;49.590;11.030;2022-10-16T16:42:35;5.70;;;2.80;;
20397;SDS011;10358;49.590;11.030;2022-10-16T16:45:01;7.90;;;2.85;;
20397;SDS011;10358;49.590;11.030;2022-10-16T16:47:26;9.40;;;5.32;;
20397;SDS011;10358;49.590;11.030;2022-10-16T16:49:52;14.38;;;4.93;;
20397;SDS011;10358;49.590;11.030;2022-10-16T16:52:17;7.75;;;3.90;;
20397;SDS011;10358;49.590;11.030;2022-10-16T16:54:43;9.27;;;2.60;;
20397;SDS011;10358;49.590;11.030;2022-10-16T16:57:16;7.03;;;2.50;;
20397;SDS011;10358;49.590;11.030;2022-10-16T16:59:42;4.47;;;2.13;;
20397;SDS011;10358;49.590;11.030;2022-10-16T17:02:08;6.70;;;2.10;;
20397;SDS011;10358;49.590;11.030;2022-10-16T17:04:34;6.18;;;2.30;;